Pagina principale
METAR-TAF:

METAR-TAF

Aeroporti :

Aeroporto di Alghero-Fertilia

Alghero, Italia

latitudine: 40-38N, longitudine: 008-17E, altezza: 23 m

Osservazione

Il bollettino è stato emesso 15 minuti fa, alle 18:50 UTC
Vento 7 kt da sud-ovest
Temperature 16°C
Umidità 77%
Pressione 1009 hPa
Visibilità 10 km o più
Nubi sparse ad un'altezza di 2500 ft, Cumulo congesto.

METAR: LIEA 191850Z 23007KT 9999 SCT025TCU 16/12 Q1009

Ora: 21:05 (19:05 UTC)

Previsione

Il bollettino è stato emesso 2 ore e 5 minuti fa, alle 17:00 UTC
Previsione valida dal 19 alle 18 UTC al 20 alle 18 UTC
Vento 10 kt da ovest/sud-ovest
Visibilità 10 km o più
Nubi sparse ad un'altezza di 3000 ft
Temporaneamente
dal 20 alle 03 UTC al 20 alle 09 UTC
Visibilità: 4000 m
pioggia
Temporaneamente
dal 20 alle 09 UTC al 20 alle 13 UTC
Visibilità: 4000 m
temporale, pioggia

TAF: LIEA 191700Z 1918/2018 25010KT 9999 SCT030 TEMPO 2003/2009 4000 RA TEMPO 2009/2013 4000 TSRA

Osservazioni e previsioni meteorologiche di più di 4000 aeroporti (messaggi METAR e TAF).

Le stazioni disponibili sono rappresentate dai dischi gialli e rossi sulla carta.

Puntare il mouse per vedere il nome della stazione.

Clicca sopra per visualizzare le osservazioni e previsioni meteorologiche.

Per cambiare la mappa : fare clic sui pulsanti verdi con una croce nera per ingrandire, il pulsante verde con un trattino per diminuire, o sulla freccia verde per le mappe adiacenti.


METAR-TAF: